sensor_id;sensor_type;location;lat;lon;timestamp;P1;durP1;ratioP1;P2;durP2;ratioP2
23658;SDS011;12006;42.666;23.326;2022-12-11T00:00:37;23.00;;;18.30;;
23658;SDS011;12006;42.666;23.326;2022-12-11T00:04:01;22.03;;;16.50;;
23658;SDS011;12006;42.666;23.326;2022-12-11T00:07:25;24.63;;;19.53;;
23658;SDS011;12006;42.666;23.326;2022-12-11T00:10:46;25.23;;;20.10;;
23658;SDS011;12006;42.666;23.326;2022-12-11T00:14:12;26.93;;;20.53;;
23658;SDS011;12006;42.666;23.326;2022-12-11T00:17:36;25.07;;;19.83;;
23658;SDS011;12006;42.666;23.326;2022-12-11T00:21:04;23.43;;;19.40;;
23658;SDS011;12006;42.666;23.326;2022-12-11T00:24:28;26.03;;;18.93;;
23658;SDS011;12006;42.666;23.326;2022-12-11T00:27:50;19.80;;;16.63;;
23658;SDS011;12006;42.666;23.326;2022-12-11T00:30:15;22.00;;;17.83;;
23658;SDS011;12006;42.666;23.326;2022-12-11T00:32:41;19.97;;;15.13;;
23658;SDS011;12006;42.666;23.326;2022-12-11T00:36:13;24.27;;;16.53;;
23658;SDS011;12006;42.666;23.326;2022-12-11T00:38:44;22.97;;;17.77;;
23658;SDS011;12006;42.666;23.326;2022-12-11T00:41:30;21.00;;;16.53;;
23658;SDS011;12006;42.666;23.326;2022-12-11T00:44:54;22.10;;;17.90;;
23658;SDS011;12006;42.666;23.326;2022-12-11T00:48:18;22.73;;;18.03;;
23658;SDS011;12006;42.666;23.326;2022-12-11T00:51:28;18.97;;;16.87;;
23658;SDS011;12006;42.666;23.326;2022-12-11T00:54:02;19.17;;;16.13;;
23658;SDS011;12006;42.666;23.326;2022-12-11T00:57:26;19.73;;;16.27;;
23658;SDS011;12006;42.666;23.326;2022-12-11T01:00:50;17.57;;;15.00;;
23658;SDS011;12006;42.666;23.326;2022-12-11T01:03:54;21.13;;;15.60;;
23658;SDS011;12006;42.666;23.326;2022-12-11T01:07:18;18.07;;;15.23;;
23658;SDS011;12006;42.666;23.326;2022-12-11T01:10:42;20.77;;;16.27;;
23658;SDS011;12006;42.666;23.326;2022-12-11T01:14:06;19.17;;;14.37;;
23658;SDS011;12006;42.666;23.326;2022-12-11T01:17:31;19.00;;;15.63;;
23658;SDS011;12006;42.666;23.326;2022-12-11T01:20:54;20.57;;;15.37;;
23658;SDS011;12006;42.666;23.326;2022-12-11T01:24:07;16.97;;;14.27;;
23658;SDS011;12006;42.666;23.326;2022-12-11T01:26:57;16.67;;;14.87;;
23658;SDS011;12006;42.666;23.326;2022-12-11T01:30:21;19.93;;;14.20;;
23658;SDS011;12006;42.666;23.326;2022-12-11T01:33:46;17.87;;;13.93;;
23658;SDS011;12006;42.666;23.326;2022-12-11T01:37:10;16.00;;;12.63;;
23658;SDS011;12006;42.666;23.326;2022-12-11T01:40:34;13.67;;;11.10;;
23658;SDS011;12006;42.666;23.326;2022-12-11T01:47:43;14.10;;;11.77;;
23658;SDS011;12006;42.666;23.326;2022-12-11T01:51:07;9.37;;;7.70;;
23658;SDS011;12006;42.666;23.326;2022-12-11T01:54:42;9.80;;;6.97;;
23658;SDS011;12006;42.666;23.326;2022-12-11T01:58:07;11.60;;;5.03;;
23658;SDS011;12006;42.666;23.326;2022-12-11T02:04:57;12.57;;;9.63;;
23658;SDS011;12006;42.666;23.326;2022-12-11T02:08:25;7.47;;;5.63;;
23658;SDS011;12006;42.666;23.326;2022-12-11T02:30:06;6.23;;;4.27;;
23658;SDS011;12006;42.666;23.326;2022-12-11T02:33:44;4.03;;;3.40;;
23658;SDS011;12006;42.666;23.326;2022-12-11T02:37:12;4.63;;;3.07;;
23658;SDS011;12006;42.666;23.326;2022-12-11T02:40:43;5.27;;;3.50;;
23658;SDS011;12006;42.666;23.326;2022-12-11T02:43:58;3.93;;;3.23;;
23658;SDS011;12006;42.666;23.326;2022-12-11T02:47:25;2.97;;;2.27;;
23658;SDS011;12006;42.666;23.326;2022-12-11T02:50:51;6.23;;;3.30;;
23658;SDS011;12006;42.666;23.326;2022-12-11T02:54:02;2.30;;;2.10;;
23658;SDS011;12006;42.666;23.326;2022-12-11T02:57:32;2.97;;;2.30;;
23658;SDS011;12006;42.666;23.326;2022-12-11T03:00:59;2.67;;;2.47;;
23658;SDS011;12006;42.666;23.326;2022-12-11T03:04:23;2.00;;;1.73;;
23658;SDS011;12006;42.666;23.326;2022-12-11T03:07:47;3.53;;;2.40;;
23658;SDS011;12006;42.666;23.326;2022-12-11T03:11:11;4.23;;;2.80;;
23658;SDS011;12006;42.666;23.326;2022-12-11T03:14:37;2.20;;;2.00;;
23658;SDS011;12006;42.666;23.326;2022-12-11T03:22:03;2.63;;;2.40;;
23658;SDS011;12006;42.666;23.326;2022-12-11T03:29:22;1.93;;;1.30;;
23658;SDS011;12006;42.666;23.326;2022-12-11T03:32:49;1.40;;;1.20;;
23658;SDS011;12006;42.666;23.326;2022-12-11T03:36:18;1.60;;;1.00;;
23658;SDS011;12006;42.666;23.326;2022-12-11T03:39:46;2.23;;;1.47;;
23658;SDS011;12006;42.666;23.326;2022-12-11T03:43:14;1.53;;;1.27;;
23658;SDS011;12006;42.666;23.326;2022-12-11T03:46:40;0.73;;;0.73;;
23658;SDS011;12006;42.666;23.326;2022-12-11T03:50:07;1.50;;;1.10;;
23658;SDS011;12006;42.666;23.326;2022-12-11T03:53:35;1.23;;;0.93;;
23658;SDS011;12006;42.666;23.326;2022-12-11T03:57:00;1.77;;;0.80;;
23658;SDS011;12006;42.666;23.326;2022-12-11T04:00:25;0.70;;;0.70;;
23658;SDS011;12006;42.666;23.326;2022-12-11T04:03:49;1.97;;;0.83;;
23658;SDS011;12006;42.666;23.326;2022-12-11T04:07:13;1.60;;;0.80;;
23658;SDS011;12006;42.666;23.326;2022-12-11T04:10:38;1.27;;;1.07;;
23658;SDS011;12006;42.666;23.326;2022-12-11T04:14:04;1.73;;;0.80;;
23658;SDS011;12006;42.666;23.326;2022-12-11T04:17:30;2.10;;;1.20;;
23658;SDS011;12006;42.666;23.326;2022-12-11T04:21:12;1.83;;;1.07;;
23658;SDS011;12006;42.666;23.326;2022-12-11T04:24:57;0.97;;;0.70;;
23658;SDS011;12006;42.666;23.326;2022-12-11T04:28:32;1.23;;;1.13;;
23658;SDS011;12006;42.666;23.326;2022-12-11T04:31:56;1.17;;;0.90;;
23658;SDS011;12006;42.666;23.326;2022-12-11T04:35:20;0.97;;;0.80;;
23658;SDS011;12006;42.666;23.326;2022-12-11T04:38:44;1.80;;;0.60;;
23658;SDS011;12006;42.666;23.326;2022-12-11T04:42:08;0.93;;;0.67;;
23658;SDS011;12006;42.666;23.326;2022-12-11T04:45:32;1.23;;;0.30;;
23658;SDS011;12006;42.666;23.326;2022-12-11T04:48:57;0.63;;;0.30;;
23658;SDS011;12006;42.666;23.326;2022-12-11T04:52:21;0.93;;;0.43;;
23658;SDS011;12006;42.666;23.326;2022-12-11T04:55:45;0.73;;;0.40;;
23658;SDS011;12006;42.666;23.326;2022-12-11T04:59:09;1.03;;;0.30;;
23658;SDS011;12006;42.666;23.326;2022-12-11T05:02:35;2.20;;;0.50;;
23658;SDS011;12006;42.666;23.326;2022-12-11T05:05:59;1.83;;;0.50;;
23658;SDS011;12006;42.666;23.326;2022-12-11T05:09:23;1.40;;;0.40;;
23658;SDS011;12006;42.666;23.326;2022-12-11T05:12:47;0.73;;;0.50;;
23658;SDS011;12006;42.666;23.326;2022-12-11T05:16:12;0.97;;;0.50;;
23658;SDS011;12006;42.666;23.326;2022-12-11T05:19:36;1.10;;;0.85;;
23658;SDS011;12006;42.666;23.326;2022-12-11T05:23:00;0.33;;;0.30;;
23658;SDS011;12006;42.666;23.326;2022-12-11T05:26:24;0.57;;;0.52;;
23658;SDS011;12006;42.666;23.326;2022-12-11T05:29:47;0.90;;;0.47;;
23658;SDS011;12006;42.666;23.326;2022-12-11T05:33:12;2.65;;;0.70;;
23658;SDS011;12006;42.666;23.326;2022-12-11T05:36:36;2.30;;;0.60;;
23658;SDS011;12006;42.666;23.326;2022-12-11T05:40:00;0.60;;;0.60;;
23658;SDS011;12006;42.666;23.326;2022-12-11T05:43:26;0.83;;;0.50;;
23658;SDS011;12006;42.666;23.326;2022-12-11T05:46:51;2.67;;;0.80;;
23658;SDS011;12006;42.666;23.326;2022-12-11T05:50:14;0.68;;;0.50;;
23658;SDS011;12006;42.666;23.326;2022-12-11T05:53:39;1.10;;;0.75;;
23658;SDS011;12006;42.666;23.326;2022-12-11T05:57:03;2.17;;;0.77;;
23658;SDS011;12006;42.666;23.326;2022-12-11T06:00:27;1.93;;;1.00;;
23658;SDS011;12006;42.666;23.326;2022-12-11T06:03:56;1.35;;;0.85;;
23658;SDS011;12006;42.666;23.326;2022-12-11T06:07:20;2.58;;;0.70;;
23658;SDS011;12006;42.666;23.326;2022-12-11T06:10:45;1.52;;;0.70;;
23658;SDS011;12006;42.666;23.326;2022-12-11T06:14:09;1.75;;;0.80;;
23658;SDS011;12006;42.666;23.326;2022-12-11T06:17:33;1.48;;;0.90;;
23658;SDS011;12006;42.666;23.326;2022-12-11T06:24:34;1.95;;;1.00;;
23658;SDS011;12006;42.666;23.326;2022-12-11T06:27:58;1.02;;;1.00;;
23658;SDS011;12006;42.666;23.326;2022-12-11T06:31:22;0.60;;;0.60;;
23658;SDS011;12006;42.666;23.326;2022-12-11T06:34:46;0.65;;;0.50;;
23658;SDS011;12006;42.666;23.326;2022-12-11T06:38:10;2.78;;;0.93;;
23658;SDS011;12006;42.666;23.326;2022-12-11T06:41:34;0.80;;;0.50;;
23658;SDS011;12006;42.666;23.326;2022-12-11T06:44:58;1.15;;;0.60;;
23658;SDS011;12006;42.666;23.326;2022-12-11T06:48:23;1.45;;;0.30;;
23658;SDS011;12006;42.666;23.326;2022-12-11T06:51:47;0.43;;;0.30;;
23658;SDS011;12006;42.666;23.326;2022-12-11T06:55:11;0.85;;;0.63;;
23658;SDS011;12006;42.666;23.326;2022-12-11T06:58:39;2.00;;;0.50;;
23658;SDS011;12006;42.666;23.326;2022-12-11T07:02:03;1.27;;;0.40;;
23658;SDS011;12006;42.666;23.326;2022-12-11T07:05:28;1.27;;;0.45;;
23658;SDS011;12006;42.666;23.326;2022-12-11T07:08:52;0.68;;;0.60;;
23658;SDS011;12006;42.666;23.326;2022-12-11T07:12:16;2.15;;;0.70;;
23658;SDS011;12006;42.666;23.326;2022-12-11T07:15:40;1.38;;;0.82;;
23658;SDS011;12006;42.666;23.326;2022-12-11T07:19:04;0.50;;;0.50;;
23658;SDS011;12006;42.666;23.326;2022-12-11T07:22:28;0.60;;;0.60;;
23658;SDS011;12006;42.666;23.326;2022-12-11T07:25:53;1.45;;;1.35;;
23658;SDS011;12006;42.666;23.326;2022-12-11T07:29:17;0.88;;;0.60;;
23658;SDS011;12006;42.666;23.326;2022-12-11T07:32:41;1.15;;;0.65;;
23658;SDS011;12006;42.666;23.326;2022-12-11T07:36:07;1.50;;;0.50;;
23658;SDS011;12006;42.666;23.326;2022-12-11T07:39:31;1.15;;;0.73;;
23658;SDS011;12006;42.666;23.326;2022-12-11T07:42:55;0.80;;;0.60;;
23658;SDS011;12006;42.666;23.326;2022-12-11T07:46:24;2.20;;;0.90;;
23658;SDS011;12006;42.666;23.326;2022-12-11T07:49:48;3.15;;;1.00;;
23658;SDS011;12006;42.666;23.326;2022-12-11T07:53:12;3.72;;;1.15;;
23658;SDS011;12006;42.666;23.326;2022-12-11T07:56:41;2.67;;;0.63;;
23658;SDS011;12006;42.666;23.326;2022-12-11T08:00:05;1.13;;;0.90;;
23658;SDS011;12006;42.666;23.326;2022-12-11T08:03:30;2.47;;;0.85;;
23658;SDS011;12006;42.666;23.326;2022-12-11T08:06:53;1.88;;;0.80;;
23658;SDS011;12006;42.666;23.326;2022-12-11T08:10:17;2.30;;;0.90;;
23658;SDS011;12006;42.666;23.326;2022-12-11T08:13:41;1.70;;;0.60;;
23658;SDS011;12006;42.666;23.326;2022-12-11T08:17:05;1.10;;;0.80;;
23658;SDS011;12006;42.666;23.326;2022-12-11T08:20:29;2.00;;;0.90;;
23658;SDS011;12006;42.666;23.326;2022-12-11T08:23:53;1.20;;;0.88;;
23658;SDS011;12006;42.666;23.326;2022-12-11T08:27:17;1.10;;;0.75;;
23658;SDS011;12006;42.666;23.326;2022-12-11T08:30:41;1.52;;;1.00;;
23658;SDS011;12006;42.666;23.326;2022-12-11T08:34:06;1.00;;;0.70;;
23658;SDS011;12006;42.666;23.326;2022-12-11T08:37:30;1.23;;;1.00;;
23658;SDS011;12006;42.666;23.326;2022-12-11T08:40:54;1.25;;;0.68;;
23658;SDS011;12006;42.666;23.326;2022-12-11T08:44:18;0.50;;;0.50;;
23658;SDS011;12006;42.666;23.326;2022-12-11T08:47:42;0.75;;;0.70;;
23658;SDS011;12006;42.666;23.326;2022-12-11T08:51:09;1.75;;;1.40;;
23658;SDS011;12006;42.666;23.326;2022-12-11T08:54:35;1.73;;;1.33;;
23658;SDS011;12006;42.666;23.326;2022-12-11T08:57:59;1.45;;;1.00;;
23658;SDS011;12006;42.666;23.326;2022-12-11T09:01:24;1.88;;;1.45;;
23658;SDS011;12006;42.666;23.326;2022-12-11T09:04:48;2.13;;;1.40;;
23658;SDS011;12006;42.666;23.326;2022-12-11T09:08:12;1.90;;;1.30;;
23658;SDS011;12006;42.666;23.326;2022-12-11T09:11:36;1.67;;;1.33;;
23658;SDS011;12006;42.666;23.326;2022-12-11T09:15:01;3.17;;;1.30;;
23658;SDS011;12006;42.666;23.326;2022-12-11T09:18:27;1.75;;;1.65;;
23658;SDS011;12006;42.666;23.326;2022-12-11T09:21:51;1.38;;;1.10;;
23658;SDS011;12006;42.666;23.326;2022-12-11T09:25:15;1.55;;;1.30;;
23658;SDS011;12006;42.666;23.326;2022-12-11T09:28:41;1.20;;;1.10;;
23658;SDS011;12006;42.666;23.326;2022-12-11T09:32:05;3.53;;;1.70;;
23658;SDS011;12006;42.666;23.326;2022-12-11T09:35:29;1.25;;;1.10;;
23658;SDS011;12006;42.666;23.326;2022-12-11T09:38:53;0.95;;;0.88;;
23658;SDS011;12006;42.666;23.326;2022-12-11T09:42:20;1.10;;;1.00;;
23658;SDS011;12006;42.666;23.326;2022-12-11T09:46:12;2.05;;;1.17;;
23658;SDS011;12006;42.666;23.326;2022-12-11T09:49:42;2.83;;;1.42;;
23658;SDS011;12006;42.666;23.326;2022-12-11T09:53:17;1.98;;;0.90;;
23658;SDS011;12006;42.666;23.326;2022-12-11T09:56:56;1.08;;;1.00;;
23658;SDS011;12006;42.666;23.326;2022-12-11T10:00:44;1.92;;;0.70;;
23658;SDS011;12006;42.666;23.326;2022-12-11T10:04:36;0.98;;;0.80;;
23658;SDS011;12006;42.666;23.326;2022-12-11T10:08:05;1.25;;;0.70;;
23658;SDS011;12006;42.666;23.326;2022-12-11T10:18:34;1.02;;;1.00;;
23658;SDS011;12006;42.666;23.326;2022-12-11T10:21:59;1.83;;;1.10;;
23658;SDS011;12006;42.666;23.326;2022-12-11T10:25:33;3.22;;;1.52;;
23658;SDS011;12006;42.666;23.326;2022-12-11T10:28:58;0.90;;;0.85;;
23658;SDS011;12006;42.666;23.326;2022-12-11T10:32:32;1.10;;;0.90;;
23658;SDS011;12006;42.666;23.326;2022-12-11T10:36:12;2.70;;;1.48;;
23658;SDS011;12006;42.666;23.326;2022-12-11T10:39:40;2.30;;;1.47;;
23658;SDS011;12006;42.666;23.326;2022-12-11T10:43:06;2.80;;;1.30;;
23658;SDS011;12006;42.666;23.326;2022-12-11T10:46:40;2.77;;;1.10;;
23658;SDS011;12006;42.666;23.326;2022-12-11T10:50:04;1.70;;;1.43;;
23658;SDS011;12006;42.666;23.326;2022-12-11T10:53:31;1.53;;;0.87;;
23658;SDS011;12006;42.666;23.326;2022-12-11T10:56:58;0.87;;;0.70;;
23658;SDS011;12006;42.666;23.326;2022-12-11T11:00:32;0.70;;;0.60;;
23658;SDS011;12006;42.666;23.326;2022-12-11T11:04:13;0.80;;;0.80;;
23658;SDS011;12006;42.666;23.326;2022-12-11T11:07:39;0.88;;;0.85;;
23658;SDS011;12006;42.666;23.326;2022-12-11T11:11:04;1.52;;;1.02;;
23658;SDS011;12006;42.666;23.326;2022-12-11T11:14:29;0.80;;;0.80;;
23658;SDS011;12006;42.666;23.326;2022-12-11T11:17:55;0.80;;;0.80;;
23658;SDS011;12006;42.666;23.326;2022-12-11T11:21:21;1.40;;;1.13;;
23658;SDS011;12006;42.666;23.326;2022-12-11T11:24:55;1.38;;;1.27;;
23658;SDS011;12006;42.666;23.326;2022-12-11T11:28:29;1.10;;;1.00;;
23658;SDS011;12006;42.666;23.326;2022-12-11T11:32:11;1.45;;;1.10;;
23658;SDS011;12006;42.666;23.326;2022-12-11T11:35:56;1.10;;;1.00;;
23658;SDS011;12006;42.666;23.326;2022-12-11T11:46:32;1.50;;;1.40;;
23658;SDS011;12006;42.666;23.326;2022-12-11T11:50:13;1.80;;;1.48;;
23658;SDS011;12006;42.666;23.326;2022-12-11T11:53:46;0.95;;;0.95;;
23658;SDS011;12006;42.666;23.326;2022-12-11T11:57:18;2.65;;;1.50;;
23658;SDS011;12006;42.666;23.326;2022-12-11T12:00:52;1.63;;;1.40;;
23658;SDS011;12006;42.666;23.326;2022-12-11T12:04:18;4.35;;;1.38;;
23658;SDS011;12006;42.666;23.326;2022-12-11T12:11:44;1.77;;;1.33;;
23658;SDS011;12006;42.666;23.326;2022-12-11T12:15:39;1.20;;;1.10;;
23658;SDS011;12006;42.666;23.326;2022-12-11T12:26:17;0.70;;;0.70;;
23658;SDS011;12006;42.666;23.326;2022-12-11T12:30:01;2.65;;;1.33;;
23658;SDS011;12006;42.666;23.326;2022-12-11T12:41:19;4.50;;;2.83;;
23658;SDS011;12006;42.666;23.326;2022-12-11T12:45:02;3.13;;;1.87;;
23658;SDS011;12006;42.666;23.326;2022-12-11T12:48:33;1.80;;;1.57;;
23658;SDS011;12006;42.666;23.326;2022-12-11T12:52:00;1.73;;;1.63;;
23658;SDS011;12006;42.666;23.326;2022-12-11T12:55:25;2.23;;;1.70;;
23658;SDS011;12006;42.666;23.326;2022-12-11T12:58:52;2.87;;;1.67;;
23658;SDS011;12006;42.666;23.326;2022-12-11T13:02:19;1.53;;;1.40;;
23658;SDS011;12006;42.666;23.326;2022-12-11T13:09:21;1.77;;;1.67;;
23658;SDS011;12006;42.666;23.326;2022-12-11T13:12:48;2.90;;;1.93;;
23658;SDS011;12006;42.666;23.326;2022-12-11T13:16:34;1.73;;;1.27;;
23658;SDS011;12006;42.666;23.326;2022-12-11T13:23:54;4.20;;;1.93;;
23658;SDS011;12006;42.666;23.326;2022-12-11T13:27:25;2.07;;;1.83;;
23658;SDS011;12006;42.666;23.326;2022-12-11T13:31:06;1.50;;;1.33;;
23658;SDS011;12006;42.666;23.326;2022-12-11T13:34:37;0.87;;;0.70;;
23658;SDS011;12006;42.666;23.326;2022-12-11T13:38:11;1.40;;;1.30;;
23658;SDS011;12006;42.666;23.326;2022-12-11T13:42:19;1.67;;;1.40;;
23658;SDS011;12006;42.666;23.326;2022-12-11T13:45:50;1.60;;;1.43;;
23658;SDS011;12006;42.666;23.326;2022-12-11T13:49:21;1.03;;;0.90;;
23658;SDS011;12006;42.666;23.326;2022-12-11T13:52:52;1.97;;;1.10;;
23658;SDS011;12006;42.666;23.326;2022-12-11T13:56:26;1.43;;;1.20;;
23658;SDS011;12006;42.666;23.326;2022-12-11T13:59:53;1.73;;;1.33;;
23658;SDS011;12006;42.666;23.326;2022-12-11T14:03:42;2.90;;;2.13;;
23658;SDS011;12006;42.666;23.326;2022-12-11T14:07:11;1.90;;;1.43;;
23658;SDS011;12006;42.666;23.326;2022-12-11T14:10:35;1.57;;;1.47;;
23658;SDS011;12006;42.666;23.326;2022-12-11T14:14:03;1.10;;;1.00;;
23658;SDS011;12006;42.666;23.326;2022-12-11T14:17:29;1.40;;;0.90;;
23658;SDS011;12006;42.666;23.326;2022-12-11T14:20:56;3.93;;;0.90;;
23658;SDS011;12006;42.666;23.326;2022-12-11T14:24:28;0.93;;;0.87;;
23658;SDS011;12006;42.666;23.326;2022-12-11T14:27:53;0.93;;;0.87;;
23658;SDS011;12006;42.666;23.326;2022-12-11T14:31:25;1.80;;;1.70;;
23658;SDS011;12006;42.666;23.326;2022-12-11T14:34:56;2.07;;;1.10;;
23658;SDS011;12006;42.666;23.326;2022-12-11T14:38:25;1.13;;;0.57;;
23658;SDS011;12006;42.666;23.326;2022-12-11T14:45:25;1.47;;;1.03;;
23658;SDS011;12006;42.666;23.326;2022-12-11T14:49:51;1.07;;;0.70;;
23658;SDS011;12006;42.666;23.326;2022-12-11T14:52:59;2.33;;;1.00;;
23658;SDS011;12006;42.666;23.326;2022-12-11T14:56:26;1.07;;;0.73;;
23658;SDS011;12006;42.666;23.326;2022-12-11T14:59:52;0.63;;;0.50;;
23658;SDS011;12006;42.666;23.326;2022-12-11T15:03:29;1.13;;;1.03;;
23658;SDS011;12006;42.666;23.326;2022-12-11T15:06:55;0.50;;;0.50;;
23658;SDS011;12006;42.666;23.326;2022-12-11T15:10:41;0.47;;;0.47;;
23658;SDS011;12006;42.666;23.326;2022-12-11T15:14:18;0.77;;;0.77;;
23658;SDS011;12006;42.666;23.326;2022-12-11T15:17:42;2.63;;;0.90;;
23658;SDS011;12006;42.666;23.326;2022-12-11T15:21:07;1.63;;;1.07;;
23658;SDS011;12006;42.666;23.326;2022-12-11T15:24:37;1.10;;;0.90;;
23658;SDS011;12006;42.666;23.326;2022-12-11T15:28:02;1.60;;;1.20;;
23658;SDS011;12006;42.666;23.326;2022-12-11T15:31:29;0.83;;;0.80;;
23658;SDS011;12006;42.666;23.326;2022-12-11T15:34:58;0.60;;;0.60;;
23658;SDS011;12006;42.666;23.326;2022-12-11T15:38:34;1.60;;;0.90;;
23658;SDS011;12006;42.666;23.326;2022-12-11T15:41:58;1.40;;;1.30;;
23658;SDS011;12006;42.666;23.326;2022-12-11T15:45:25;0.93;;;0.90;;
23658;SDS011;12006;42.666;23.326;2022-12-11T15:48:50;3.70;;;1.07;;
23658;SDS011;12006;42.666;23.326;2022-12-11T15:52:14;3.87;;;1.90;;
23658;SDS011;12006;42.666;23.326;2022-12-11T15:55:38;1.70;;;1.10;;
23658;SDS011;12006;42.666;23.326;2022-12-11T15:59:03;1.37;;;1.10;;
23658;SDS011;12006;42.666;23.326;2022-12-11T16:02:30;1.90;;;1.37;;
23658;SDS011;12006;42.666;23.326;2022-12-11T16:05:54;2.47;;;0.90;;
23658;SDS011;12006;42.666;23.326;2022-12-11T16:09:19;0.83;;;0.83;;
23658;SDS011;12006;42.666;23.326;2022-12-11T16:12:44;1.00;;;0.90;;
23658;SDS011;12006;42.666;23.326;2022-12-11T16:16:08;1.20;;;1.10;;
23658;SDS011;12006;42.666;23.326;2022-12-11T16:19:33;1.37;;;0.93;;
23658;SDS011;12006;42.666;23.326;2022-12-11T16:22:57;0.87;;;0.87;;
23658;SDS011;12006;42.666;23.326;2022-12-11T16:26:21;1.70;;;1.23;;
23658;SDS011;12006;42.666;23.326;2022-12-11T16:29:46;1.70;;;1.17;;
23658;SDS011;12006;42.666;23.326;2022-12-11T16:33:10;0.80;;;0.80;;
23658;SDS011;12006;42.666;23.326;2022-12-11T16:36:34;1.00;;;0.60;;
23658;SDS011;12006;42.666;23.326;2022-12-11T16:39:58;1.87;;;1.10;;
23658;SDS011;12006;42.666;23.326;2022-12-11T16:43:26;1.43;;;0.80;;
23658;SDS011;12006;42.666;23.326;2022-12-11T16:46:51;0.80;;;0.80;;
23658;SDS011;12006;42.666;23.326;2022-12-11T16:50:15;1.90;;;1.40;;
23658;SDS011;12006;42.666;23.326;2022-12-11T16:53:40;1.50;;;1.40;;
23658;SDS011;12006;42.666;23.326;2022-12-11T16:57:04;1.67;;;1.57;;
23658;SDS011;12006;42.666;23.326;2022-12-11T17:00:28;1.60;;;1.30;;
23658;SDS011;12006;42.666;23.326;2022-12-11T17:03:52;1.00;;;0.90;;
23658;SDS011;12006;42.666;23.326;2022-12-11T17:07:16;2.10;;;0.80;;
23658;SDS011;12006;42.666;23.326;2022-12-11T17:10:40;1.20;;;1.10;;
23658;SDS011;12006;42.666;23.326;2022-12-11T17:14:04;1.23;;;1.13;;
23658;SDS011;12006;42.666;23.326;2022-12-11T17:17:28;1.57;;;1.20;;
23658;SDS011;12006;42.666;23.326;2022-12-11T17:20:52;2.30;;;1.60;;
23658;SDS011;12006;42.666;23.326;2022-12-11T17:24:18;1.87;;;1.10;;
23658;SDS011;12006;42.666;23.326;2022-12-11T17:27:46;1.63;;;1.30;;
23658;SDS011;12006;42.666;23.326;2022-12-11T17:31:16;1.00;;;0.97;;
23658;SDS011;12006;42.666;23.326;2022-12-11T17:34:41;1.50;;;1.33;;
23658;SDS011;12006;42.666;23.326;2022-12-11T17:38:05;1.50;;;1.23;;
23658;SDS011;12006;42.666;23.326;2022-12-11T17:41:29;2.57;;;2.40;;
23658;SDS011;12006;42.666;23.326;2022-12-11T17:44:53;3.03;;;2.17;;
23658;SDS011;12006;42.666;23.326;2022-12-11T17:48:17;2.67;;;2.47;;
23658;SDS011;12006;42.666;23.326;2022-12-11T17:51:42;3.07;;;2.40;;
23658;SDS011;12006;42.666;23.326;2022-12-11T17:55:06;2.43;;;1.70;;
23658;SDS011;12006;42.666;23.326;2022-12-11T17:58:32;3.00;;;1.93;;
23658;SDS011;12006;42.666;23.326;2022-12-11T18:01:56;2.23;;;2.03;;
23658;SDS011;12006;42.666;23.326;2022-12-11T18:05:20;1.13;;;1.03;;
23658;SDS011;12006;42.666;23.326;2022-12-11T18:08:46;1.97;;;1.80;;
23658;SDS011;12006;42.666;23.326;2022-12-11T18:12:10;2.23;;;2.07;;
23658;SDS011;12006;42.666;23.326;2022-12-11T18:15:35;6.13;;;5.63;;
23658;SDS011;12006;42.666;23.326;2022-12-11T18:19:02;2.00;;;1.73;;
23658;SDS011;12006;42.666;23.326;2022-12-11T18:22:27;2.93;;;2.50;;
23658;SDS011;12006;42.666;23.326;2022-12-11T18:25:51;3.07;;;2.77;;
23658;SDS011;12006;42.666;23.326;2022-12-11T18:29:15;2.80;;;2.60;;
23658;SDS011;12006;42.666;23.326;2022-12-11T18:32:42;6.30;;;3.33;;
23658;SDS011;12006;42.666;23.326;2022-12-11T18:36:07;5.03;;;4.23;;
23658;SDS011;12006;42.666;23.326;2022-12-11T18:39:32;5.50;;;4.13;;
23658;SDS011;12006;42.666;23.326;2022-12-11T18:42:56;5.80;;;5.13;;
23658;SDS011;12006;42.666;23.326;2022-12-11T18:46:20;6.27;;;4.70;;
23658;SDS011;12006;42.666;23.326;2022-12-11T18:49:44;4.93;;;3.83;;
23658;SDS011;12006;42.666;23.326;2022-12-11T18:53:12;4.37;;;3.67;;
23658;SDS011;12006;42.666;23.326;2022-12-11T18:56:36;4.53;;;4.13;;
23658;SDS011;12006;42.666;23.326;2022-12-11T19:00:00;5.63;;;4.17;;
23658;SDS011;12006;42.666;23.326;2022-12-11T19:03:29;3.37;;;2.60;;
23658;SDS011;12006;42.666;23.326;2022-12-11T19:06:53;4.70;;;3.67;;
23658;SDS011;12006;42.666;23.326;2022-12-11T19:10:17;4.87;;;4.30;;
23658;SDS011;12006;42.666;23.326;2022-12-11T19:13:43;4.73;;;3.70;;
23658;SDS011;12006;42.666;23.326;2022-12-11T19:17:07;4.90;;;4.40;;
23658;SDS011;12006;42.666;23.326;2022-12-11T19:20:33;4.93;;;4.13;;
23658;SDS011;12006;42.666;23.326;2022-12-11T19:24:00;4.77;;;4.30;;
23658;SDS011;12006;42.666;23.326;2022-12-11T19:27:24;4.70;;;4.20;;
23658;SDS011;12006;42.666;23.326;2022-12-11T19:30:48;5.90;;;4.53;;
23658;SDS011;12006;42.666;23.326;2022-12-11T19:34:13;6.37;;;5.43;;
23658;SDS011;12006;42.666;23.326;2022-12-11T19:37:39;6.27;;;5.17;;
23658;SDS011;12006;42.666;23.326;2022-12-11T19:41:04;5.77;;;5.20;;
23658;SDS011;12006;42.666;23.326;2022-12-11T19:44:29;5.47;;;4.97;;
23658;SDS011;12006;42.666;23.326;2022-12-11T19:47:53;5.40;;;4.87;;
23658;SDS011;12006;42.666;23.326;2022-12-11T19:51:19;6.13;;;5.37;;
23658;SDS011;12006;42.666;23.326;2022-12-11T19:54:43;5.10;;;3.97;;
23658;SDS011;12006;42.666;23.326;2022-12-11T19:58:17;7.90;;;6.03;;
23658;SDS011;12006;42.666;23.326;2022-12-11T20:01:43;7.60;;;6.80;;
23658;SDS011;12006;42.666;23.326;2022-12-11T20:05:07;7.63;;;5.90;;
23658;SDS011;12006;42.666;23.326;2022-12-11T20:08:33;7.20;;;5.73;;
23658;SDS011;12006;42.666;23.326;2022-12-11T20:11:57;6.13;;;5.53;;
23658;SDS011;12006;42.666;23.326;2022-12-11T20:15:23;4.87;;;4.23;;
23658;SDS011;12006;42.666;23.326;2022-12-11T20:18:47;4.90;;;4.40;;
23658;SDS011;12006;42.666;23.326;2022-12-11T20:22:11;5.97;;;4.43;;
23658;SDS011;12006;42.666;23.326;2022-12-11T20:25:36;4.47;;;4.07;;
23658;SDS011;12006;42.666;23.326;2022-12-11T20:29:02;5.80;;;5.30;;
23658;SDS011;12006;42.666;23.326;2022-12-11T20:32:26;4.83;;;4.33;;
23658;SDS011;12006;42.666;23.326;2022-12-11T20:35:50;4.73;;;4.30;;
23658;SDS011;12006;42.666;23.326;2022-12-11T20:39:15;4.60;;;3.60;;
23658;SDS011;12006;42.666;23.326;2022-12-11T20:42:39;4.40;;;4.00;;
23658;SDS011;12006;42.666;23.326;2022-12-11T20:46:04;5.20;;;4.70;;
23658;SDS011;12006;42.666;23.326;2022-12-11T20:49:30;4.13;;;3.73;;
23658;SDS011;12006;42.666;23.326;2022-12-11T20:52:54;4.53;;;4.13;;
23658;SDS011;12006;42.666;23.326;2022-12-11T20:56:23;4.67;;;4.20;;
23658;SDS011;12006;42.666;23.326;2022-12-11T20:59:47;4.20;;;3.57;;
23658;SDS011;12006;42.666;23.326;2022-12-11T21:03:12;3.60;;;3.30;;
23658;SDS011;12006;42.666;23.326;2022-12-11T21:06:36;3.80;;;3.50;;
23658;SDS011;12006;42.666;23.326;2022-12-11T21:10:01;2.80;;;2.57;;
23658;SDS011;12006;42.666;23.326;2022-12-11T21:13:25;4.17;;;3.77;;
23658;SDS011;12006;42.666;23.326;2022-12-11T21:16:48;4.73;;;4.33;;
23658;SDS011;12006;42.666;23.326;2022-12-11T21:20:12;4.70;;;4.30;;
23658;SDS011;12006;42.666;23.326;2022-12-11T21:23:37;4.30;;;3.90;;
23658;SDS011;12006;42.666;23.326;2022-12-11T21:27:01;6.27;;;3.60;;
23658;SDS011;12006;42.666;23.326;2022-12-11T21:30:25;4.13;;;3.73;;
23658;SDS011;12006;42.666;23.326;2022-12-11T21:33:49;3.80;;;3.47;;
23658;SDS011;12006;42.666;23.326;2022-12-11T21:37:14;4.20;;;3.83;;